Inicio METAR Ruta Wind Satelite

Informe Meteorológico

Fecha: 2020/09/22 23:21:18 Local
2020.09.23 04:21 UTC


Estado: VIGENTE
Operación:VFR
Pereira / Matecana, Colombia (SKPE) 04-49N 075-44W 1342M
2020.09.23 0400 UTC
Wind: from the ESE (110 degrees) at 7 MPH (6 KT):0
Visibility: greater than 7 mile(s):0
Sky conditions: partly cloudy
Temperature: 68 F (20 C)
Dew Point: 60 F (16 C)
Relative Humidity: 77%
Pressure (altimeter): 30.08 in. Hg (1018 hPa)
ob: SKPE 230400Z 11006KT 9999 FEW015 SCT080 20/16 A3008
cycle: 4

SKPE 230300Z 10006KT 9999 FEW016 SCT080 21/17 A3006
SKPE 230200Z 11006KT 9999 FEW016 SCT080 22/17 A3003
SKPE 230100Z 19004KT 9999 FEW016TCU SCT080 24/17 A3001 RMK TCU S/SW
SKPE 230010Z 19004KT 9999 FEW016TCU SCT080 24/17 A3001 RMK TCU S/SW
SKPE 230000Z 23006KT 9999 FEW016TCU SCT080 24/17 A3000 RMK TCU S/SW

2020/09/22 18:35
TAF SKPE 221630Z 2218/2318 34006KT 9999 SCT017 SCT090
TEMPO 2221/2224 7000 VCSH SCT015TCU PROB40
TEMPO 2300/2302 6000 DZRA
BECMG 2302/2303 VRB02KT FEW017 BKN080 PROB40
TEMPO 2308/2310 7000 DZRA
TEMPO 2310/2313 8000 MIFG TX28/2219Z TN18/2311Z